Portada
METAR-TAF:

METAR-TAF

Aeroports :

Phnom Penh, Cambodja

latitud: 11-33N, longitud: 104-51E, altitud: 10 m

Observació

L'informe es va fer fa 31 minuts, a les 12:00 UTC
Vent calma
Temperatura 30°C
Humitat 70%
Pressió 1006 hPa
Visibilitat: 9000 m
Núvols disperses a una alçada de 1700 ft

METAR: VDPP 231200Z 00000KT 9000 SCT017 30/24 Q1006

Hora: 19:31 (12:31 UTC)

Pronòstic

L'informe es va fer fa 1 hora i 31 minuts, a les 11:00 UTC
Pronòstic vàlid del 23 a les 12 UTC al 24 a les 06 UTC
Vent 7 kt del Sud
Visibilitat 10 km o més
Núvols disperses a una alçada de 1700 ft
Núvols disperses a una alçada de 4000 ft
Temporalment
l' 23 a les 12 UTC al 23 a les 16 UTC
Núvols disperses a una alçada de 1500 ft
Escasses núvols a una alçada de 1700 ft, Cumulonimbus.

TAF: VDPP 231100Z 2312/2406 19007KT 9999 SCT017 SCT040 TEMPO 2312/2316 SCT015 FEW017CB

Observacions i pronòstics meteorològics de més de 4000 aeroports (METAR i TAF).

Les estacions disponibles són els punts grocs i vermells al mapa.

Posi el ratolí al punt desitjat per veure el nom de l'estació.

Feu clic per veure les observacions i els pronòstics meteorològics.

Per canviar el mapa: feu clic els botons verds amb una creu de color negre per apropar; al botó verd amb un guió per allunyar la imatge; o en les fletxes verdes per a mapes adjacents.


METAR-TAF: